createdAt,value
2022-09-13T00:00:27.266Z,94.29
2022-09-13T00:01:28.218Z,94.08
2022-09-13T00:02:29.136Z,94.18
2022-09-13T00:03:29.989Z,93.87
2022-09-13T00:04:30.870Z,94.49
2022-09-13T00:05:31.753Z,93.87
2022-09-13T00:06:32.649Z,93.67
2022-09-13T00:07:33.529Z,93.77
2022-09-13T00:08:34.410Z,93.67
2022-09-13T00:09:35.403Z,94.08
2022-09-13T00:10:36.253Z,95.01
2022-09-13T00:11:37.121Z,95.87
2022-09-13T00:12:37.996Z,95.67
2022-09-13T00:13:38.898Z,95.25
2022-09-13T00:14:39.752Z,95.05
2022-09-13T00:15:40.636Z,94.74
2022-09-13T00:16:41.572Z,94.84
2022-09-13T00:17:42.409Z,94.74
2022-09-13T00:18:43.282Z,94.84
2022-09-13T00:19:44.164Z,94.84
2022-09-13T00:20:45.046Z,94.95
2022-09-13T00:21:45.937Z,94.95
2022-09-13T00:22:46.814Z,94.99
2022-09-13T00:23:47.694Z,94.89
2022-09-13T00:24:48.577Z,95.61
2022-09-13T00:25:49.458Z,96.02
2022-09-13T00:26:50.371Z,95.50
2022-09-13T00:27:51.254Z,95.81
2022-09-13T00:28:52.240Z,95.81
2022-09-13T00:29:53.044Z,95.92
2022-09-13T00:30:53.946Z,96.33
2022-09-13T00:31:54.890Z,96.12
2022-09-13T00:32:55.741Z,96.02
2022-09-13T00:33:56.624Z,95.81
2022-09-13T00:34:57.515Z,95.61
2022-09-13T00:35:58.417Z,95.61
2022-09-13T00:36:59.311Z,95.40
2022-09-13T00:38:00.190Z,95.20
2022-09-13T00:39:01.064Z,94.89
2022-09-13T00:40:02.016Z,94.89
2022-09-13T00:41:02.868Z,94.78
2022-09-13T00:42:03.762Z,94.99
2022-09-13T00:43:04.648Z,94.99
2022-09-13T00:44:05.588Z,95.09
2022-09-13T00:45:06.409Z,95.30
2022-09-13T00:46:07.325Z,95.20
2022-09-13T00:47:08.176Z,95.50
2022-09-13T00:48:09.058Z,95.71
2022-09-13T00:49:09.940Z,96.02
2022-09-13T00:50:10.814Z,96.02
2022-09-13T00:51:11.694Z,95.56
2022-09-13T00:52:12.605Z,94.99
2022-09-13T00:53:13.468Z,94.84
2022-09-13T00:54:14.344Z,94.64
2022-09-13T00:55:15.223Z,94.74
2022-09-13T00:56:16.106Z,94.48
2022-09-13T00:57:16.998Z,94.48
2022-09-13T00:58:17.882Z,94.37
2022-09-13T00:59:18.788Z,94.27
2022-09-13T01:00:19.653Z,94.48
2022-09-13T01:01:20.568Z,94.37
2022-09-13T01:02:21.449Z,93.96
2022-09-13T01:03:22.304Z,94.07
2022-09-13T01:04:23.181Z,94.27
2022-09-13T01:05:24.061Z,94.58
2022-09-13T01:06:24.935Z,94.89
2022-09-13T01:07:25.824Z,94.89
2022-09-13T01:08:26.699Z,94.78
2022-09-13T01:09:27.582Z,94.83
2022-09-13T01:10:28.484Z,94.93
2022-09-13T01:11:29.366Z,94.62
2022-09-13T01:12:30.259Z,94.31
2022-09-13T01:13:31.161Z,94.11
2022-09-13T01:14:32.061Z,94.11
2022-09-13T01:15:32.923Z,94.62
2022-09-13T01:16:33.812Z,95.03
2022-09-13T01:17:34.689Z,95.45
2022-09-13T01:18:35.562Z,95.34
2022-09-13T01:19:36.445Z,95.03
2022-09-13T01:20:37.318Z,95.45
2022-09-13T01:21:38.199Z,95.96
2022-09-13T01:22:39.081Z,96.06
2022-09-13T01:23:39.964Z,96.99
2022-09-13T01:24:40.847Z,97.81
2022-09-13T01:25:41.729Z,98.22
2022-09-13T01:26:42.602Z,98.33
2022-09-13T01:27:43.494Z,98.33
2022-09-13T01:28:44.368Z,97.91
2022-09-13T01:29:45.269Z,97.19
2022-09-13T01:30:46.123Z,96.37
2022-09-13T01:31:47.063Z,96.12
2022-09-13T01:32:47.957Z,95.86
2022-09-13T01:33:48.958Z,95.34
2022-09-13T01:34:49.826Z,94.83
2022-09-13T01:35:50.703Z,94.42
2022-09-13T01:36:51.587Z,94.01
2022-09-13T01:37:52.479Z,94.11
2022-09-13T01:38:53.352Z,93.90
2022-09-13T01:39:54.251Z,94.01
2022-09-13T01:40:55.110Z,94.26
2022-09-13T01:41:55.989Z,94.15
2022-09-13T01:42:56.874Z,93.95
2022-09-13T01:43:57.755Z,94.05
2022-09-13T01:44:58.646Z,94.36
2022-09-13T01:45:59.554Z,94.15
2022-09-13T01:47:00.401Z,94.26
2022-09-13T01:48:01.342Z,94.46
2022-09-13T01:49:02.216Z,94.87
2022-09-13T01:50:03.167Z,95.12
2022-09-13T01:51:03.811Z,95.02
2022-09-13T01:52:04.695Z,94.71
2022-09-13T01:53:05.578Z,94.81
2022-09-13T01:54:06.460Z,94.81
2022-09-13T01:55:07.333Z,94.71
2022-09-13T01:56:08.215Z,94.92
2022-09-13T01:57:09.112Z,94.76
2022-09-13T01:58:09.991Z,94.65
2022-09-13T01:59:10.865Z,94.65
2022-09-13T02:00:11.766Z,95.00
2022-09-13T02:01:12.682Z,95.21
2022-09-13T02:02:13.588Z,95.62
2022-09-13T02:03:14.409Z,96.45
2022-09-13T02:04:15.291Z,96.45
2022-09-13T02:05:16.173Z,96.24
2022-09-13T02:06:17.057Z,96.24
2022-09-13T02:07:17.949Z,96.45
2022-09-13T02:08:18.831Z,96.86
2022-09-13T02:09:21.595Z,97.17
2022-09-13T02:10:20.529Z,96.96
2022-09-13T02:11:21.414Z,97.27
2022-09-13T02:12:22.316Z,97.06
2022-09-13T02:13:23.176Z,96.96
2022-09-13T02:14:24.059Z,96.96
2022-09-13T02:15:25.034Z,96.96
2022-09-13T02:16:25.897Z,96.86
2022-09-13T02:17:26.736Z,96.70
2022-09-13T02:18:27.617Z,96.70
2022-09-13T02:19:28.500Z,96.80
2022-09-13T02:20:29.382Z,97.01
2022-09-13T02:21:30.261Z,97.01
2022-09-13T02:22:31.172Z,97.01
2022-09-13T02:23:32.064Z,96.70
2022-09-13T02:24:32.967Z,96.70
2022-09-13T02:25:33.839Z,97.05
2022-09-13T02:26:34.721Z,97.26
2022-09-13T02:27:35.604Z,97.26
2022-09-13T02:28:36.485Z,97.16
2022-09-13T02:29:37.359Z,97.47
2022-09-13T02:30:38.280Z,97.56
2022-09-13T02:31:39.195Z,97.88
2022-09-13T02:32:40.031Z,97.88
2022-09-13T02:33:40.904Z,97.77
2022-09-13T02:34:41.787Z,98.29
2022-09-13T02:35:42.659Z,99.11
2022-09-13T02:36:43.541Z,99.52
2022-09-13T02:37:44.424Z,99.52
2022-09-13T02:38:45.305Z,99.84
2022-09-13T02:39:46.201Z,99.73
2022-09-13T02:40:47.063Z,99.84
2022-09-13T02:41:47.947Z,99.94
2022-09-13T02:42:48.838Z,99.84
2022-09-13T02:43:49.710Z,99.99
2022-09-13T02:44:50.593Z,99.94
2022-09-13T02:45:51.648Z,99.73
2022-09-13T02:46:51.960Z,99.63
2022-09-13T02:47:52.843Z,99.38
2022-09-13T02:48:53.725Z,99.07
2022-09-13T02:49:54.604Z,99.27
2022-09-13T02:50:55.481Z,99.58
2022-09-13T02:51:56.367Z,99.17
2022-09-13T02:52:57.257Z,99.17
2022-09-13T02:53:58.132Z,98.91
2022-09-13T02:54:59.013Z,98.91
2022-09-13T02:55:59.898Z,99.01
2022-09-13T02:57:00.770Z,99.11
2022-09-13T02:58:01.666Z,99.52
2022-09-13T02:59:02.544Z,99.32
2022-09-13T03:00:03.418Z,99.11
2022-09-13T03:01:04.354Z,99.01
2022-09-13T03:02:05.273Z,99.43
2022-09-13T03:03:06.129Z,99.32
2022-09-13T03:04:06.999Z,99.43
2022-09-13T03:05:07.881Z,99.52
2022-09-13T03:06:08.755Z,99.52
2022-09-13T03:07:09.663Z,99.01
2022-09-13T03:08:10.548Z,99.11
2022-09-13T03:09:11.428Z,99.11
2022-09-13T03:10:12.312Z,99.43
2022-09-13T03:11:13.193Z,99.32
2022-09-13T03:12:14.085Z,99.52
2022-09-13T03:13:14.968Z,99.73
2022-09-13T03:14:15.851Z,99.94
2022-09-13T03:15:16.733Z,99.99
2022-09-13T03:16:17.673Z,99.99
2022-09-13T03:17:18.529Z,99.84
2022-09-13T03:18:19.406Z,99.90
2022-09-13T03:19:20.288Z,99.79
2022-09-13T03:20:21.165Z,99.38
2022-09-13T03:21:22.044Z,98.97
2022-09-13T03:22:22.927Z,98.97
2022-09-13T03:23:23.810Z,98.76
2022-09-13T03:24:24.687Z,98.66
2022-09-13T03:25:25.565Z,98.60
2022-09-13T03:26:26.439Z,98.97
2022-09-13T03:27:27.338Z,98.91
2022-09-13T03:28:28.214Z,99.11
2022-09-13T03:29:29.096Z,99.32
2022-09-13T03:30:29.970Z,99.32
2022-09-13T03:31:31.009Z,99.43
2022-09-13T03:32:31.366Z,99.94
2022-09-13T03:33:32.247Z,99.63
2022-09-13T03:34:33.149Z,99.52
2022-09-13T03:35:34.052Z,99.43
2022-09-13T03:36:34.921Z,99.01
2022-09-13T03:37:35.821Z,98.80
2022-09-13T03:38:36.722Z,98.60
2022-09-13T03:39:37.607Z,99.11
2022-09-13T03:40:38.491Z,99.22
2022-09-13T03:41:39.373Z,99.22
2022-09-13T03:42:40.266Z,99.11
2022-09-13T03:43:41.164Z,99.32
2022-09-13T03:44:42.033Z,99.22
2022-09-13T03:45:42.983Z,99.43
2022-09-13T03:46:43.871Z,99.22
2022-09-13T03:47:44.728Z,98.80
2022-09-13T03:48:45.662Z,98.60
2022-09-13T03:49:46.498Z,98.60
2022-09-13T03:50:47.366Z,98.65
2022-09-13T03:51:48.249Z,98.75
2022-09-13T03:52:49.132Z,98.91
2022-09-13T03:53:50.014Z,99.63
2022-09-13T03:54:50.888Z,99.52
2022-09-13T03:55:51.770Z,99.32
2022-09-13T03:56:52.644Z,99.01
2022-09-13T03:57:53.537Z,99.01
2022-09-13T03:58:54.420Z,98.60
2022-09-13T03:59:55.313Z,98.29
2022-09-13T04:00:56.222Z,98.29
2022-09-13T04:01:57.112Z,98.65
2022-09-13T04:02:57.994Z,98.50
2022-09-13T04:03:58.877Z,98.54
2022-09-13T04:04:59.766Z,98.44
2022-09-13T04:06:00.640Z,98.33
2022-09-13T04:07:01.515Z,98.02
2022-09-13T04:08:02.407Z,98.13
2022-09-13T04:09:03.291Z,98.33
2022-09-13T04:10:04.175Z,98.65
2022-09-13T04:11:05.047Z,98.96
2022-09-13T04:12:05.928Z,99.37
2022-09-13T04:13:06.811Z,99.68
2022-09-13T04:14:07.693Z,99.78
2022-09-13T04:15:08.566Z,99.68
2022-09-13T04:16:09.585Z,99.47
2022-09-13T04:17:10.435Z,99.47
2022-09-13T04:18:11.302Z,99.68
2022-09-13T04:19:12.177Z,99.57
2022-09-13T04:20:13.059Z,99.57
2022-09-13T04:21:13.941Z,99.47
2022-09-13T04:22:14.829Z,99.37
2022-09-13T04:23:15.719Z,99.37
2022-09-13T04:24:16.600Z,99.26
2022-09-13T04:25:17.474Z,98.96
2022-09-13T04:26:18.355Z,98.65
2022-09-13T04:27:19.245Z,98.54
2022-09-13T04:28:20.068Z,98.54
2022-09-13T04:29:20.940Z,98.33
2022-09-13T04:30:21.825Z,98.44
2022-09-13T04:31:22.711Z,99.16
2022-09-13T04:32:23.605Z,99.37
2022-09-13T04:33:24.468Z,99.06
2022-09-13T04:34:25.308Z,99.88
2022-09-13T04:35:26.131Z,99.99
2022-09-13T04:36:26.968Z,99.99
2022-09-13T04:37:27.852Z,99.99
2022-09-13T04:38:28.691Z,99.94
2022-09-13T04:39:29.512Z,99.37
2022-09-13T04:40:30.350Z,98.96
2022-09-13T04:41:31.180Z,98.96
2022-09-13T04:42:32.017Z,98.75
2022-09-13T04:43:32.845Z,98.96
2022-09-13T04:44:33.674Z,99.16
2022-09-13T04:45:34.596Z,99.57
2022-09-13T04:46:35.362Z,99.78
2022-09-13T04:47:36.210Z,99.47
2022-09-13T04:48:37.019Z,98.75
2022-09-13T04:49:37.853Z,98.33
2022-09-13T04:50:38.698Z,98.65
2022-09-13T04:51:39.508Z,98.54
2022-09-13T04:52:40.347Z,98.85
2022-09-13T04:53:41.183Z,98.96
2022-09-13T04:54:42.008Z,98.96
2022-09-13T04:55:42.837Z,99.16
2022-09-13T04:56:44.185Z,99.41
2022-09-13T04:57:44.525Z,99.62
2022-09-13T04:58:45.356Z,99.93
2022-09-13T04:59:46.171Z,99.72
2022-09-13T05:00:47.034Z,99.82
2022-09-13T05:01:47.870Z,99.82
2022-09-13T05:02:48.695Z,99.99
2022-09-13T05:03:49.504Z,99.99
2022-09-13T05:04:50.326Z,99.99
2022-09-13T05:05:51.158Z,99.99
2022-09-13T05:06:51.975Z,99.99
2022-09-13T05:07:52.813Z,99.99
2022-09-13T05:08:53.632Z,99.99
2022-09-13T05:09:54.480Z,99.99
2022-09-13T05:10:55.301Z,99.99
2022-09-13T05:11:56.130Z,99.99
2022-09-13T05:12:56.957Z,99.99
2022-09-13T05:13:57.786Z,99.99
2022-09-13T05:14:58.618Z,99.68
2022-09-13T05:15:59.621Z,99.37
2022-09-13T05:17:00.390Z,99.16
2022-09-13T05:18:01.244Z,98.85
2022-09-13T05:19:02.047Z,98.75
2022-09-13T05:20:02.874Z,98.54
2022-09-13T05:21:03.779Z,98.69
2022-09-13T05:22:04.585Z,99.21
2022-09-13T05:23:05.415Z,99.72
2022-09-13T05:24:06.245Z,99.99
2022-09-13T05:25:07.074Z,99.99
2022-09-13T05:26:07.902Z,99.99
2022-09-13T05:27:08.734Z,99.99
2022-09-13T05:28:09.568Z,99.99
2022-09-13T05:29:10.399Z,99.99
2022-09-13T05:30:11.226Z,99.99
2022-09-13T05:31:12.098Z,99.99
2022-09-13T05:32:12.905Z,99.99
2022-09-13T05:33:13.760Z,99.84
2022-09-13T05:34:14.573Z,99.94
2022-09-13T05:35:15.406Z,99.73
2022-09-13T05:36:16.230Z,99.01
2022-09-13T05:37:17.050Z,98.70
2022-09-13T05:38:17.887Z,98.60
2022-09-13T05:39:32.039Z,98.50
2022-09-13T05:40:20.455Z,98.39
2022-09-13T05:41:20.243Z,98.29
2022-09-13T05:42:21.068Z,98.19
2022-09-13T05:43:21.911Z,98.50
2022-09-13T05:44:22.740Z,98.33
2022-09-13T05:45:23.560Z,98.13
2022-09-13T05:46:24.412Z,98.23
2022-09-13T05:47:25.208Z,98.13
2022-09-13T05:48:26.064Z,98.38
2022-09-13T05:49:26.881Z,98.38
2022-09-13T05:50:56.808Z,98.58
2022-09-13T05:51:29.424Z,98.90
2022-09-13T05:52:29.252Z,99.99
2022-09-13T05:53:30.081Z,99.99
2022-09-13T05:54:30.912Z,99.99
2022-09-13T05:55:31.731Z,99.99
2022-09-13T05:56:32.560Z,99.93
2022-09-13T05:57:33.403Z,99.99
2022-09-13T05:58:34.240Z,99.99
2022-09-13T05:59:35.061Z,99.99
2022-09-13T06:00:35.889Z,99.99
2022-09-13T06:01:36.801Z,99.99
2022-09-13T06:02:37.784Z,99.99
2022-09-13T06:03:38.615Z,99.99
2022-09-13T06:04:39.417Z,99.99
2022-09-13T06:05:40.236Z,99.99
2022-09-13T06:06:41.065Z,99.99
2022-09-13T06:07:41.887Z,99.99
2022-09-13T06:08:42.771Z,99.99
2022-09-13T06:09:43.551Z,99.57
2022-09-13T06:10:44.399Z,99.93
2022-09-13T06:11:45.235Z,99.99
2022-09-13T06:12:46.051Z,99.99
2022-09-13T06:13:46.899Z,99.99
2022-09-13T06:14:47.721Z,99.99
2022-09-13T06:15:48.588Z,99.99
2022-09-13T06:16:49.440Z,99.99
2022-09-13T06:17:50.251Z,99.99
2022-09-13T06:18:51.103Z,99.99
2022-09-13T06:19:51.907Z,99.99
2022-09-13T06:20:52.760Z,99.99
2022-09-13T06:21:53.612Z,99.99
2022-09-13T06:22:54.420Z,99.99
2022-09-13T06:23:55.259Z,99.99
2022-09-13T06:24:56.091Z,99.99
2022-09-13T06:25:56.934Z,99.99
2022-09-13T06:26:57.755Z,99.99
2022-09-13T06:27:58.607Z,99.99
2022-09-13T06:28:59.425Z,99.99
2022-09-13T06:30:00.253Z,99.99
2022-09-13T06:31:01.143Z,99.99
2022-09-13T06:32:01.912Z,99.99
2022-09-13T06:33:02.801Z,99.99
2022-09-13T06:34:03.668Z,99.99
2022-09-13T06:35:04.421Z,99.99
2022-09-13T06:36:05.269Z,99.87
2022-09-13T06:37:06.085Z,99.66
2022-09-13T06:38:06.920Z,99.31
2022-09-13T06:39:07.756Z,99.51
2022-09-13T06:40:08.643Z,99.82
2022-09-13T06:41:09.416Z,99.99
2022-09-13T06:42:10.244Z,99.99
2022-09-13T06:43:11.075Z,99.26
2022-09-13T06:44:11.928Z,99.57
2022-09-13T06:45:12.747Z,99.26
2022-09-13T06:46:13.641Z,98.75
2022-09-13T06:47:14.427Z,97.99
2022-09-13T06:48:15.249Z,98.19
2022-09-13T06:49:16.236Z,98.50
2022-09-13T06:50:17.000Z,96.60
2022-09-13T06:51:17.828Z,97.58
2022-09-13T06:52:18.675Z,97.58
2022-09-13T06:53:19.507Z,96.20
2022-09-13T06:54:20.342Z,96.47
2022-09-13T06:55:21.347Z,95.40
2022-09-13T06:56:22.101Z,94.59
2022-09-13T06:57:22.930Z,92.50
2022-09-13T06:58:23.765Z,90.88
2022-09-13T06:59:24.600Z,88.04
2022-09-13T07:00:25.481Z,87.18
2022-09-13T07:01:26.486Z,85.68
2022-09-13T07:02:26.931Z,83.29
2022-09-13T07:03:27.715Z,84.23
2022-09-13T07:04:28.568Z,83.07
2022-09-13T07:05:29.378Z,81.20
2022-09-13T07:06:30.203Z,80.85
2022-09-13T07:07:31.038Z,78.68
2022-09-13T07:08:31.864Z,77.83
2022-09-13T07:09:32.703Z,76.98
2022-09-13T07:10:33.524Z,78.78
2022-09-13T07:11:34.355Z,76.85
2022-09-13T07:12:35.194Z,76.31
2022-09-13T07:13:36.026Z,75.66
2022-09-13T07:14:36.854Z,74.85
2022-09-13T07:15:37.704Z,74.41
2022-09-13T07:16:38.518Z,72.78
2022-09-13T07:17:39.341Z,73.60
2022-09-13T07:18:40.163Z,72.96
2022-09-13T07:19:41.106Z,72.04
2022-09-13T07:20:41.872Z,72.85
2022-09-13T07:21:42.712Z,71.53
2022-09-13T07:22:43.533Z,71.00
2022-09-13T07:23:44.380Z,70.79
2022-09-13T07:24:45.218Z,70.89
2022-09-13T07:25:46.032Z,68.97
2022-09-13T07:26:46.851Z,70.05
2022-09-13T07:27:47.683Z,70.15
2022-09-13T07:28:48.629Z,69.95
2022-09-13T07:29:49.002Z,70.62
2022-09-13T07:30:49.862Z,69.01
2022-09-13T07:31:50.662Z,69.10
2022-09-13T07:32:51.510Z,67.79
2022-09-13T07:33:52.337Z,69.27
2022-09-13T07:34:53.262Z,67.96
2022-09-13T07:35:54.013Z,67.72
2022-09-13T07:36:54.857Z,67.63
2022-09-13T07:37:55.676Z,67.72
2022-09-13T07:38:56.519Z,68.23
2022-09-13T07:39:57.403Z,68.71
2022-09-13T07:40:58.187Z,67.90
2022-09-13T07:41:59.025Z,68.00
2022-09-13T07:42:59.851Z,66.35
2022-09-13T07:44:00.686Z,66.86
2022-09-13T07:45:01.515Z,65.75
2022-09-13T07:46:02.377Z,66.42
2022-09-13T07:47:03.168Z,66.12
2022-09-13T07:48:03.996Z,66.12
2022-09-13T07:49:04.845Z,65.21
2022-09-13T07:50:05.692Z,65.31
2022-09-13T07:51:06.498Z,65.41
2022-09-13T07:52:07.322Z,66.19
2022-09-13T07:53:08.144Z,64.98
2022-09-13T07:54:08.987Z,66.22
2022-09-13T07:55:09.812Z,65.48
2022-09-13T07:56:10.641Z,66.89
2022-09-13T07:57:11.499Z,65.99
2022-09-13T07:58:12.321Z,65.15
2022-09-13T07:59:13.176Z,62.93
2022-09-13T08:00:14.002Z,64.84
2022-09-13T08:01:14.881Z,64.75
2022-09-13T08:02:15.688Z,64.04
2022-09-13T08:03:16.482Z,65.12
2022-09-13T08:04:17.321Z,63.60
2022-09-13T08:05:18.169Z,64.11
2022-09-13T08:06:18.981Z,64.72
2022-09-13T08:07:19.811Z,62.97
2022-09-13T08:08:20.643Z,63.37
2022-09-13T08:09:21.482Z,62.87
2022-09-13T08:10:22.319Z,64.15
2022-09-13T08:11:23.154Z,64.45
2022-09-13T08:12:23.969Z,64.92
2022-09-13T08:13:24.793Z,63.21
2022-09-13T08:14:25.633Z,63.48
2022-09-13T08:15:26.520Z,63.28
2022-09-13T08:16:27.288Z,61.77
2022-09-13T08:17:28.119Z,60.19
2022-09-13T08:18:28.948Z,61.80
2022-09-13T08:19:29.790Z,62.74
2022-09-13T08:20:30.648Z,62.34
2022-09-13T08:21:31.436Z,63.14
2022-09-13T08:22:32.265Z,63.47
2022-09-13T08:23:33.086Z,64.69
2022-09-13T08:24:33.926Z,65.69
2022-09-13T08:25:34.756Z,66.50
2022-09-13T08:26:35.586Z,65.49
2022-09-13T08:27:36.436Z,64.58
2022-09-13T08:28:37.243Z,65.49
2022-09-13T08:29:38.087Z,66.09
2022-09-13T08:30:38.976Z,66.30
2022-09-13T08:31:39.741Z,65.66
2022-09-13T08:32:40.574Z,64.45
2022-09-13T08:33:46.126Z,65.96
2022-09-13T08:34:43.139Z,66.27
2022-09-13T08:35:42.998Z,64.95
2022-09-13T08:36:43.809Z,63.95
2022-09-13T08:37:44.645Z,64.65
2022-09-13T08:38:45.479Z,63.85
2022-09-13T08:39:46.381Z,64.75
2022-09-13T08:40:47.203Z,64.45
2022-09-13T08:41:48.114Z,64.95
2022-09-13T08:42:48.899Z,65.56
2022-09-13T08:43:49.989Z,64.86
2022-09-13T08:44:50.319Z,64.75
2022-09-13T08:45:51.191Z,64.65
2022-09-13T08:46:51.980Z,65.56
2022-09-13T08:47:52.806Z,65.73
2022-09-13T08:48:53.626Z,65.83
2022-09-13T08:49:54.456Z,63.92
2022-09-13T08:50:55.327Z,63.11
2022-09-13T08:51:56.119Z,64.52
2022-09-13T08:52:56.949Z,65.42
2022-09-13T08:53:57.768Z,65.33
2022-09-13T08:54:58.715Z,65.02
2022-09-13T08:55:59.492Z,63.11
2022-09-13T08:57:00.318Z,63.62
2022-09-13T08:58:01.148Z,63.79
2022-09-13T08:59:01.978Z,63.89
2022-09-13T09:00:02.818Z,64.59
2022-09-13T09:01:03.731Z,65.19
2022-09-13T09:02:04.525Z,64.29
2022-09-13T09:03:05.356Z,65.30
2022-09-13T09:04:06.175Z,65.39
2022-09-13T09:05:07.038Z,65.39
2022-09-13T09:06:07.880Z,64.99
2022-09-13T09:07:08.688Z,66.07
2022-09-13T09:08:09.504Z,66.47
2022-09-13T09:09:10.341Z,66.77
2022-09-13T09:10:11.175Z,66.57
2022-09-13T09:11:12.013Z,65.84
2022-09-13T09:12:12.844Z,64.83
2022-09-13T09:13:13.666Z,65.03
2022-09-13T09:14:14.499Z,64.03
2022-09-13T09:15:15.326Z,64.23
2022-09-13T09:16:16.255Z,64.03
2022-09-13T09:17:17.093Z,64.93
2022-09-13T09:18:17.918Z,65.41
2022-09-13T09:19:18.738Z,65.60
2022-09-13T09:20:19.583Z,65.41
2022-09-13T09:21:20.430Z,65.00
2022-09-13T09:22:21.243Z,64.90
2022-09-13T09:23:22.087Z,64.87
2022-09-13T09:24:22.902Z,64.37
2022-09-13T09:25:23.739Z,63.56
2022-09-13T09:26:24.594Z,63.76
2022-09-13T09:27:25.413Z,63.33
2022-09-13T09:28:26.241Z,62.33
2022-09-13T09:29:27.061Z,62.03
2022-09-13T09:30:27.899Z,61.93
2022-09-13T09:31:28.721Z,62.53
2022-09-13T09:32:29.586Z,63.53
2022-09-13T09:33:30.399Z,63.81
2022-09-13T09:34:31.228Z,64.11
2022-09-13T09:35:32.067Z,64.31
2022-09-13T09:36:32.938Z,64.31
2022-09-13T09:37:33.738Z,64.37
2022-09-13T09:38:34.583Z,62.27
2022-09-13T09:39:35.397Z,61.87
2022-09-13T09:40:36.314Z,62.17
2022-09-13T09:41:37.157Z,63.28
2022-09-13T09:42:37.974Z,63.17
2022-09-13T09:43:38.799Z,63.78
2022-09-13T09:44:39.634Z,64.48
2022-09-13T09:45:40.467Z,63.37
2022-09-13T09:46:41.294Z,63.75
2022-09-13T09:47:42.141Z,62.44
2022-09-13T09:48:42.969Z,62.54
2022-09-13T09:49:43.793Z,62.84
2022-09-13T09:50:44.627Z,64.34
2022-09-13T09:51:45.559Z,64.65
2022-09-13T09:52:46.303Z,63.84
2022-09-13T09:53:47.246Z,61.31
2022-09-13T09:54:48.032Z,60.21
2022-09-13T09:55:48.864Z,60.81
2022-09-13T09:56:49.695Z,61.51
2022-09-13T09:57:50.526Z,62.31
2022-09-13T09:58:51.371Z,61.81
2022-09-13T09:59:52.209Z,61.58
2022-09-13T10:00:53.042Z,61.48
2022-09-13T10:01:53.913Z,61.18
2022-09-13T10:02:54.695Z,60.98
2022-09-13T10:03:55.515Z,60.78
2022-09-13T10:04:56.344Z,61.65
2022-09-13T10:05:57.184Z,62.25
2022-09-13T10:06:58.031Z,61.75
2022-09-13T10:07:58.838Z,61.85
2022-09-13T10:08:59.664Z,62.75
2022-09-13T10:10:00.502Z,63.35
2022-09-13T10:11:01.333Z,62.35
2022-09-13T10:12:02.164Z,62.45
2022-09-13T10:13:02.990Z,62.05
2022-09-13T10:14:03.820Z,61.95
2022-09-13T10:15:04.670Z,62.65
2022-09-13T10:16:05.486Z,62.75
2022-09-13T10:17:06.315Z,62.42
2022-09-13T10:18:16.944Z,63.12
2022-09-13T10:19:11.578Z,62.62
2022-09-13T10:20:08.481Z,63.32
2022-09-13T10:21:09.329Z,64.12
2022-09-13T10:22:10.168Z,63.92
2022-09-13T10:23:10.972Z,64.12
2022-09-13T10:24:11.802Z,63.92
2022-09-13T10:25:12.641Z,64.52
2022-09-13T10:26:13.460Z,64.52
2022-09-13T10:27:14.300Z,65.22
2022-09-13T10:28:15.125Z,64.52
2022-09-13T10:29:15.952Z,65.33
2022-09-13T10:30:16.798Z,64.12
2022-09-13T10:31:17.885Z,65.02
2022-09-13T10:32:18.206Z,65.62
2022-09-13T10:33:19.055Z,66.22
2022-09-13T10:34:19.864Z,65.33
2022-09-13T10:35:20.710Z,64.03
2022-09-13T10:36:48.353Z,63.92
2022-09-13T10:37:23.260Z,64.25
2022-09-13T10:38:23.072Z,65.36
2022-09-13T10:39:23.909Z,64.95
2022-09-13T10:40:24.810Z,65.05
2022-09-13T10:41:25.578Z,64.45
2022-09-13T10:42:26.399Z,64.86
2022-09-13T10:43:27.222Z,65.95
2022-09-13T10:44:28.051Z,66.46
2022-09-13T10:45:28.895Z,66.25
2022-09-13T10:46:29.742Z,64.86
2022-09-13T10:47:30.569Z,63.45
2022-09-13T10:48:31.393Z,62.85
2022-09-13T10:49:32.218Z,63.62
2022-09-13T10:50:33.046Z,62.22
2022-09-13T10:51:33.876Z,62.72
2022-09-13T10:52:34.799Z,63.22
2022-09-13T10:53:35.593Z,61.52
2022-09-13T10:54:36.415Z,61.52
2022-09-13T10:55:37.252Z,61.82
2022-09-13T10:56:38.071Z,60.52
2022-09-13T10:57:38.899Z,59.62
2022-09-13T10:58:39.721Z,59.42
2022-09-13T10:59:40.561Z,59.82
2022-09-13T11:00:41.387Z,60.22
2022-09-13T11:01:42.240Z,59.32
2022-09-13T11:02:43.033Z,59.82
2022-09-13T11:03:43.993Z,60.72
2022-09-13T11:04:44.780Z,60.72
2022-09-13T11:05:45.631Z,59.52
2022-09-13T11:06:46.448Z,60.89
2022-09-13T11:07:47.295Z,60.59
2022-09-13T11:08:48.109Z,60.79
2022-09-13T11:09:48.950Z,60.99
2022-09-13T11:10:49.779Z,61.09
2022-09-13T11:11:50.611Z,60.19
2022-09-13T11:12:51.436Z,59.86
2022-09-13T11:13:52.264Z,59.06
2022-09-13T11:14:53.083Z,58.86
2022-09-13T11:15:53.921Z,58.67
2022-09-13T11:16:54.806Z,58.17
2022-09-13T11:17:55.592Z,57.97
2022-09-13T11:18:56.407Z,57.87
2022-09-13T11:19:57.473Z,58.73
2022-09-13T11:20:57.817Z,57.44
2022-09-13T11:21:58.645Z,57.04
2022-09-13T11:22:59.573Z,56.74
2022-09-13T11:24:00.334Z,56.94
2022-09-13T11:25:01.191Z,56.24
2022-09-13T11:26:02.014Z,56.64
2022-09-13T11:27:02.838Z,56.04
2022-09-13T11:28:03.665Z,56.44
2022-09-13T11:29:04.497Z,55.71
2022-09-13T11:30:05.324Z,56.81
2022-09-13T11:31:06.181Z,56.71
2022-09-13T11:32:07.101Z,56.31
2022-09-13T11:33:07.911Z,56.31
2022-09-13T11:34:08.740Z,56.21
2022-09-13T11:35:09.568Z,55.81
2022-09-13T11:36:10.411Z,55.91
2022-09-13T11:37:11.272Z,54.82
2022-09-13T11:38:12.193Z,55.02
2022-09-13T11:39:12.942Z,55.99
2022-09-13T11:40:13.812Z,56.09
2022-09-13T11:41:14.597Z,56.18
2022-09-13T11:42:15.424Z,56.88
2022-09-13T11:43:16.258Z,57.18
2022-09-13T11:44:17.077Z,56.38
2022-09-13T11:45:21.476Z,56.96
2022-09-13T11:46:18.752Z,58.15
2022-09-13T11:47:19.586Z,55.46
2022-09-13T11:48:20.412Z,56.96
2022-09-13T11:49:21.258Z,57.15
2022-09-13T11:50:22.078Z,57.86
2022-09-13T11:51:22.917Z,58.33
2022-09-13T11:52:23.746Z,57.13
2022-09-13T11:53:28.196Z,56.63
2022-09-13T11:54:26.292Z,56.13
2022-09-13T11:55:26.125Z,55.63
2022-09-13T11:56:26.962Z,55.83
2022-09-13T11:57:27.793Z,55.43
2022-09-13T11:58:28.622Z,55.63
2022-09-13T11:59:29.441Z,55.93
2022-09-13T12:00:30.272Z,56.23
2022-09-13T12:01:31.120Z,55.31
2022-09-13T12:02:32.084Z,54.71
2022-09-13T12:03:32.589Z,55.51
2022-09-13T12:04:33.965Z,55.71
2022-09-13T12:05:34.316Z,54.31
2022-09-13T12:06:35.154Z,54.11
2022-09-13T12:07:35.995Z,53.81
2022-09-13T12:08:36.831Z,55.41
2022-09-13T12:09:37.642Z,56.60
2022-09-13T12:10:38.472Z,57.70
2022-09-13T12:11:39.301Z,56.77
2022-09-13T12:12:40.132Z,57.97
2022-09-13T12:13:40.978Z,56.98
2022-09-13T12:14:41.799Z,56.18
2022-09-13T12:15:42.622Z,55.48
2022-09-13T12:16:43.513Z,54.98
2022-09-13T12:17:44.275Z,54.58
2022-09-13T12:18:45.109Z,54.86
2022-09-13T12:19:45.942Z,56.35
2022-09-13T12:20:46.760Z,56.35
2022-09-13T12:21:47.582Z,54.96
2022-09-13T12:22:48.410Z,55.55
2022-09-13T12:23:49.591Z,54.36
2022-09-13T12:24:49.900Z,53.56
2022-09-13T12:25:50.737Z,53.36
2022-09-13T12:26:51.561Z,52.64
2022-09-13T12:27:52.380Z,53.53
2022-09-13T12:28:53.212Z,53.24
2022-09-13T12:29:54.040Z,52.04
2022-09-13T12:30:54.877Z,52.84
2022-09-13T12:31:55.750Z,52.74
2022-09-13T12:32:59.000Z,53.14
2022-09-13T12:33:57.480Z,53.53
2022-09-13T12:34:58.306Z,52.74
2022-09-13T12:35:59.136Z,53.34
2022-09-13T12:36:59.974Z,53.74
2022-09-13T12:38:00.814Z,54.73
2022-09-13T12:39:01.644Z,53.74
2022-09-13T12:40:02.500Z,53.04
2022-09-13T12:41:03.294Z,53.24
2022-09-13T12:42:04.134Z,54.43
2022-09-13T12:43:04.981Z,53.64
2022-09-13T12:44:05.832Z,53.53
2022-09-13T12:45:06.641Z,53.04
2022-09-13T12:46:07.510Z,53.44
2022-09-13T12:47:08.308Z,54.53
2022-09-13T12:48:09.120Z,54.83
2022-09-13T12:49:09.971Z,53.94
2022-09-13T12:50:36.767Z,54.43
2022-09-13T12:51:12.518Z,54.63
2022-09-13T12:52:12.349Z,54.13
2022-09-13T12:53:13.175Z,54.63
2022-09-13T12:54:14.022Z,54.13
2022-09-13T12:55:42.385Z,53.64
2022-09-13T12:56:16.566Z,52.64
2022-09-13T12:57:16.395Z,53.24
2022-09-13T12:58:17.215Z,53.94
2022-09-13T12:59:18.047Z,55.23
2022-09-13T13:00:18.869Z,56.12
2022-09-13T13:01:19.904Z,57.12
2022-09-13T13:02:20.279Z,56.42
2022-09-13T13:03:21.079Z,56.20